sensor_id;sensor_type;location;lat;lon;timestamp;P1;durP1;ratioP1;P2;durP2;ratioP2
84614;SDS011;74845;51.204;22.580;2023-12-20T00:01:52;15.18;;;13.35;;
84614;SDS011;74845;51.204;22.580;2023-12-20T00:04:19;14.35;;;12.05;;
84614;SDS011;74845;51.204;22.580;2023-12-20T00:06:46;14.02;;;12.55;;
84614;SDS011;74845;51.204;22.580;2023-12-20T00:09:13;15.13;;;12.77;;
84614;SDS011;74845;51.204;22.580;2023-12-20T00:11:40;15.32;;;13.10;;
84614;SDS011;74845;51.204;22.580;2023-12-20T00:14:08;15.82;;;12.07;;
84614;SDS011;74845;51.204;22.580;2023-12-20T00:16:35;18.52;;;13.15;;
84614;SDS011;74845;51.204;22.580;2023-12-20T00:19:02;17.60;;;13.77;;
84614;SDS011;74845;51.204;22.580;2023-12-20T00:21:28;16.00;;;13.45;;
84614;SDS011;74845;51.204;22.580;2023-12-20T00:23:55;15.63;;;12.45;;
84614;SDS011;74845;51.204;22.580;2023-12-20T00:26:22;14.38;;;12.82;;
84614;SDS011;74845;51.204;22.580;2023-12-20T00:28:49;11.73;;;10.73;;
84614;SDS011;74845;51.204;22.580;2023-12-20T00:31:15;14.13;;;12.63;;
84614;SDS011;74845;51.204;22.580;2023-12-20T00:33:42;13.88;;;12.05;;
84614;SDS011;74845;51.204;22.580;2023-12-20T00:36:10;12.25;;;10.48;;
84614;SDS011;74845;51.204;22.580;2023-12-20T00:38:37;13.60;;;12.15;;
84614;SDS011;74845;51.204;22.580;2023-12-20T00:41:04;13.27;;;12.07;;
84614;SDS011;74845;51.204;22.580;2023-12-20T00:43:31;17.60;;;13.05;;
84614;SDS011;74845;51.204;22.580;2023-12-20T00:45:57;16.75;;;12.95;;
84614;SDS011;74845;51.204;22.580;2023-12-20T00:48:26;14.65;;;13.13;;
84614;SDS011;74845;51.204;22.580;2023-12-20T00:50:53;14.55;;;11.77;;
84614;SDS011;74845;51.204;22.580;2023-12-20T00:53:20;13.32;;;11.25;;
84614;SDS011;74845;51.204;22.580;2023-12-20T00:55:47;14.65;;;11.80;;
84614;SDS011;74845;51.204;22.580;2023-12-20T00:58:14;13.95;;;12.57;;
84614;SDS011;74845;51.204;22.580;2023-12-20T01:00:42;14.38;;;12.02;;
84614;SDS011;74845;51.204;22.580;2023-12-20T01:03:10;12.63;;;11.32;;
84614;SDS011;74845;51.204;22.580;2023-12-20T01:05:37;14.30;;;12.63;;
84614;SDS011;74845;51.204;22.580;2023-12-20T01:08:03;17.25;;;13.48;;
84614;SDS011;74845;51.204;22.580;2023-12-20T01:10:31;13.85;;;12.20;;
84614;SDS011;74845;51.204;22.580;2023-12-20T01:12:58;15.90;;;13.05;;
84614;SDS011;74845;51.204;22.580;2023-12-20T01:15:25;12.05;;;10.82;;
84614;SDS011;74845;51.204;22.580;2023-12-20T01:17:51;12.80;;;11.48;;
84614;SDS011;74845;51.204;22.580;2023-12-20T01:20:18;13.93;;;11.55;;
84614;SDS011;74845;51.204;22.580;2023-12-20T01:22:46;14.52;;;13.05;;
84614;SDS011;74845;51.204;22.580;2023-12-20T01:25:13;13.13;;;11.75;;
84614;SDS011;74845;51.204;22.580;2023-12-20T01:27:40;15.45;;;13.63;;
84614;SDS011;74845;51.204;22.580;2023-12-20T01:30:07;15.65;;;12.65;;
84614;SDS011;74845;51.204;22.580;2023-12-20T01:32:34;13.40;;;11.63;;
84614;SDS011;74845;51.204;22.580;2023-12-20T01:35:01;14.15;;;12.68;;
84614;SDS011;74845;51.204;22.580;2023-12-20T01:41:34;10.25;;;9.25;;
84614;SDS011;74845;51.204;22.580;2023-12-20T01:44:01;10.82;;;9.75;;
84614;SDS011;74845;51.204;22.580;2023-12-20T01:46:27;14.43;;;11.68;;
84614;SDS011;74845;51.204;22.580;2023-12-20T01:48:54;14.18;;;11.23;;
84614;SDS011;74845;51.204;22.580;2023-12-20T01:51:21;12.93;;;11.50;;
84614;SDS011;74845;51.204;22.580;2023-12-20T01:53:49;12.05;;;9.98;;
84614;SDS011;74845;51.204;22.580;2023-12-20T01:56:16;13.55;;;10.98;;
84614;SDS011;74845;51.204;22.580;2023-12-20T01:58:44;13.00;;;11.05;;
84614;SDS011;74845;51.204;22.580;2023-12-20T02:01:12;13.93;;;12.20;;
84614;SDS011;74845;51.204;22.580;2023-12-20T02:03:43;12.02;;;10.70;;
84614;SDS011;74845;51.204;22.580;2023-12-20T02:06:10;12.10;;;10.63;;
84614;SDS011;74845;51.204;22.580;2023-12-20T02:08:37;14.88;;;13.25;;
84614;SDS011;74845;51.204;22.580;2023-12-20T02:11:04;12.15;;;10.63;;
84614;SDS011;74845;51.204;22.580;2023-12-20T02:13:31;12.98;;;11.68;;
84614;SDS011;74845;51.204;22.580;2023-12-20T02:15:58;13.20;;;11.63;;
84614;SDS011;74845;51.204;22.580;2023-12-20T02:18:26;15.02;;;12.70;;
84614;SDS011;74845;51.204;22.580;2023-12-20T02:20:53;12.65;;;11.40;;
84614;SDS011;74845;51.204;22.580;2023-12-20T02:23:20;15.93;;;12.68;;
84614;SDS011;74845;51.204;22.580;2023-12-20T02:25:47;11.88;;;10.52;;
84614;SDS011;74845;51.204;22.580;2023-12-20T02:28:14;12.57;;;11.27;;
84614;SDS011;74845;51.204;22.580;2023-12-20T02:30:41;14.40;;;11.45;;
84614;SDS011;74845;51.204;22.580;2023-12-20T02:33:10;13.95;;;11.70;;
84614;SDS011;74845;51.204;22.580;2023-12-20T02:35:38;14.73;;;11.45;;
84614;SDS011;74845;51.204;22.580;2023-12-20T02:38:05;12.93;;;11.50;;
84614;SDS011;74845;51.204;22.580;2023-12-20T02:40:32;14.93;;;12.18;;
84614;SDS011;74845;51.204;22.580;2023-12-20T02:42:58;13.05;;;11.57;;
84614;SDS011;74845;51.204;22.580;2023-12-20T02:45:26;14.45;;;11.45;;
84614;SDS011;74845;51.204;22.580;2023-12-20T02:47:53;13.80;;;12.25;;
84614;SDS011;74845;51.204;22.580;2023-12-20T02:50:20;12.30;;;10.57;;
84614;SDS011;74845;51.204;22.580;2023-12-20T02:52:47;15.30;;;11.23;;
84614;SDS011;74845;51.204;22.580;2023-12-20T02:55:13;14.20;;;10.48;;
84614;SDS011;74845;51.204;22.580;2023-12-20T02:57:40;11.88;;;10.68;;
84614;SDS011;74845;51.204;22.580;2023-12-20T03:00:09;16.27;;;11.45;;
84614;SDS011;74845;51.204;22.580;2023-12-20T03:02:37;13.32;;;11.23;;
84614;SDS011;74845;51.204;22.580;2023-12-20T03:05:03;12.00;;;10.80;;
84614;SDS011;74845;51.204;22.580;2023-12-20T03:07:31;11.68;;;10.15;;
84614;SDS011;74845;51.204;22.580;2023-12-20T03:09:57;12.32;;;10.38;;
84614;SDS011;74845;51.204;22.580;2023-12-20T03:12:44;11.88;;;10.77;;
84614;SDS011;74845;51.204;22.580;2023-12-20T03:15:11;13.80;;;10.70;;
84614;SDS011;74845;51.204;22.580;2023-12-20T03:17:37;12.15;;;10.68;;
84614;SDS011;74845;51.204;22.580;2023-12-20T03:20:04;12.73;;;9.88;;
84614;SDS011;74845;51.204;22.580;2023-12-20T03:22:32;12.20;;;10.70;;
84614;SDS011;74845;51.204;22.580;2023-12-20T03:24:59;13.65;;;11.48;;
84614;SDS011;74845;51.204;22.580;2023-12-20T03:27:25;14.20;;;12.10;;
84614;SDS011;74845;51.204;22.580;2023-12-20T03:29:52;13.32;;;11.95;;
84614;SDS011;74845;51.204;22.580;2023-12-20T03:32:19;13.95;;;10.88;;
84614;SDS011;74845;51.204;22.580;2023-12-20T03:34:46;12.45;;;11.27;;
84614;SDS011;74845;51.204;22.580;2023-12-20T03:37:13;10.85;;;9.70;;
84614;SDS011;74845;51.204;22.580;2023-12-20T03:39:40;11.90;;;10.50;;
84614;SDS011;74845;51.204;22.580;2023-12-20T03:42:06;13.63;;;11.38;;
84614;SDS011;74845;51.204;22.580;2023-12-20T03:44:33;9.57;;;8.68;;
84614;SDS011;74845;51.204;22.580;2023-12-20T03:47:00;13.75;;;11.15;;
84614;SDS011;74845;51.204;22.580;2023-12-20T03:49:26;13.52;;;10.65;;
84614;SDS011;74845;51.204;22.580;2023-12-20T03:51:53;12.65;;;11.30;;
84614;SDS011;74845;51.204;22.580;2023-12-20T03:54:20;11.85;;;10.65;;
84614;SDS011;74845;51.204;22.580;2023-12-20T03:56:47;12.23;;;10.55;;
84614;SDS011;74845;51.204;22.580;2023-12-20T03:59:14;11.23;;;10.13;;
84614;SDS011;74845;51.204;22.580;2023-12-20T04:01:44;12.10;;;10.90;;
84614;SDS011;74845;51.204;22.580;2023-12-20T04:04:13;11.73;;;10.52;;
84614;SDS011;74845;51.204;22.580;2023-12-20T04:06:41;15.25;;;13.65;;
84614;SDS011;74845;51.204;22.580;2023-12-20T04:09:08;12.32;;;11.13;;
84614;SDS011;74845;51.204;22.580;2023-12-20T04:11:38;12.38;;;11.13;;
84614;SDS011;74845;51.204;22.580;2023-12-20T04:14:05;10.77;;;9.77;;
84614;SDS011;74845;51.204;22.580;2023-12-20T04:16:31;13.15;;;11.05;;
84614;SDS011;74845;51.204;22.580;2023-12-20T04:18:58;11.30;;;10.23;;
84614;SDS011;74845;51.204;22.580;2023-12-20T04:21:25;13.55;;;11.07;;
84614;SDS011;74845;51.204;22.580;2023-12-20T04:23:52;12.90;;;11.60;;
84614;SDS011;74845;51.204;22.580;2023-12-20T04:26:18;13.35;;;11.95;;
84614;SDS011;74845;51.204;22.580;2023-12-20T04:28:45;13.32;;;12.02;;
84614;SDS011;74845;51.204;22.580;2023-12-20T04:31:12;12.27;;;10.88;;
84614;SDS011;74845;51.204;22.580;2023-12-20T04:33:39;14.27;;;12.88;;
84614;SDS011;74845;51.204;22.580;2023-12-20T04:36:06;14.75;;;11.25;;
84614;SDS011;74845;51.204;22.580;2023-12-20T04:38:33;12.07;;;10.70;;
84614;SDS011;74845;51.204;22.580;2023-12-20T04:40:59;13.38;;;11.98;;
84614;SDS011;74845;51.204;22.580;2023-12-20T04:43:26;13.88;;;12.38;;
84614;SDS011;74845;51.204;22.580;2023-12-20T04:45:53;15.45;;;12.90;;
84614;SDS011;74845;51.204;22.580;2023-12-20T04:48:19;16.30;;;11.90;;
84614;SDS011;74845;51.204;22.580;2023-12-20T04:50:46;12.50;;;11.30;;
84614;SDS011;74845;51.204;22.580;2023-12-20T04:53:13;13.07;;;11.63;;
84614;SDS011;74845;51.204;22.580;2023-12-20T04:55:40;14.13;;;12.82;;
84614;SDS011;74845;51.204;22.580;2023-12-20T04:58:06;14.18;;;12.68;;
84614;SDS011;74845;51.204;22.580;2023-12-20T05:00:33;10.70;;;9.60;;
84614;SDS011;74845;51.204;22.580;2023-12-20T05:03:00;12.45;;;11.18;;
84614;SDS011;74845;51.204;22.580;2023-12-20T05:05:26;12.85;;;10.52;;
84614;SDS011;74845;51.204;22.580;2023-12-20T05:07:53;12.82;;;10.98;;
84614;SDS011;74845;51.204;22.580;2023-12-20T05:10:20;14.32;;;12.82;;
84614;SDS011;74845;51.204;22.580;2023-12-20T05:12:47;11.35;;;10.18;;
84614;SDS011;74845;51.204;22.580;2023-12-20T05:15:14;12.88;;;11.25;;
84614;SDS011;74845;51.204;22.580;2023-12-20T05:17:40;13.55;;;10.93;;
84614;SDS011;74845;51.204;22.580;2023-12-20T05:20:08;13.45;;;12.15;;
84614;SDS011;74845;51.204;22.580;2023-12-20T05:22:35;13.07;;;11.75;;
84614;SDS011;74845;51.204;22.580;2023-12-20T05:25:01;13.20;;;11.77;;
84614;SDS011;74845;51.204;22.580;2023-12-20T05:27:28;11.02;;;9.77;;
84614;SDS011;74845;51.204;22.580;2023-12-20T05:29:55;11.50;;;10.40;;
84614;SDS011;74845;51.204;22.580;2023-12-20T05:32:24;12.30;;;11.00;;
84614;SDS011;74845;51.204;22.580;2023-12-20T05:34:51;12.60;;;11.23;;
84614;SDS011;74845;51.204;22.580;2023-12-20T05:37:18;13.40;;;12.10;;
84614;SDS011;74845;51.204;22.580;2023-12-20T05:39:45;12.43;;;11.13;;
84614;SDS011;74845;51.204;22.580;2023-12-20T05:42:12;12.93;;;11.30;;
84614;SDS011;74845;51.204;22.580;2023-12-20T05:44:39;13.15;;;11.85;;
84614;SDS011;74845;51.204;22.580;2023-12-20T05:47:06;14.45;;;13.00;;
84614;SDS011;74845;51.204;22.580;2023-12-20T05:49:32;11.60;;;10.40;;
84614;SDS011;74845;51.204;22.580;2023-12-20T05:51:59;11.00;;;9.88;;
84614;SDS011;74845;51.204;22.580;2023-12-20T05:54:26;13.30;;;11.50;;
84614;SDS011;74845;51.204;22.580;2023-12-20T05:56:53;12.70;;;10.82;;
84614;SDS011;74845;51.204;22.580;2023-12-20T05:59:19;12.13;;;10.40;;
84614;SDS011;74845;51.204;22.580;2023-12-20T06:01:46;11.18;;;10.05;;
84614;SDS011;74845;51.204;22.580;2023-12-20T06:04:13;14.50;;;11.70;;
84614;SDS011;74845;51.204;22.580;2023-12-20T06:06:41;13.15;;;11.73;;
84614;SDS011;74845;51.204;22.580;2023-12-20T06:09:09;12.15;;;10.98;;
84614;SDS011;74845;51.204;22.580;2023-12-20T06:11:36;12.40;;;10.57;;
84614;SDS011;74845;51.204;22.580;2023-12-20T06:14:03;12.18;;;10.65;;
84614;SDS011;74845;51.204;22.580;2023-12-20T06:16:29;11.48;;;10.18;;
84614;SDS011;74845;51.204;22.580;2023-12-20T06:18:56;12.90;;;11.57;;
84614;SDS011;74845;51.204;22.580;2023-12-20T06:21:23;13.15;;;11.73;;
84614;SDS011;74845;51.204;22.580;2023-12-20T06:23:50;14.07;;;11.68;;
84614;SDS011;74845;51.204;22.580;2023-12-20T06:26:17;13.27;;;11.98;;
84614;SDS011;74845;51.204;22.580;2023-12-20T06:28:44;11.82;;;10.48;;
84614;SDS011;74845;51.204;22.580;2023-12-20T06:31:10;12.00;;;11.02;;
84614;SDS011;74845;51.204;22.580;2023-12-20T06:33:37;13.00;;;11.70;;
84614;SDS011;74845;51.204;22.580;2023-12-20T06:36:07;12.50;;;11.25;;
84614;SDS011;74845;51.204;22.580;2023-12-20T06:38:33;13.48;;;11.13;;
84614;SDS011;74845;51.204;22.580;2023-12-20T06:41:00;12.68;;;11.40;;
84614;SDS011;74845;51.204;22.580;2023-12-20T06:43:27;12.20;;;10.77;;
84614;SDS011;74845;51.204;22.580;2023-12-20T06:46:11;13.25;;;11.88;;
84614;SDS011;74845;51.204;22.580;2023-12-20T06:48:39;14.07;;;12.63;;
84614;SDS011;74845;51.204;22.580;2023-12-20T06:51:10;13.45;;;12.13;;
84614;SDS011;74845;51.204;22.580;2023-12-20T06:53:39;14.70;;;13.27;;
84614;SDS011;74845;51.204;22.580;2023-12-20T06:56:06;15.32;;;12.30;;
84614;SDS011;74845;51.204;22.580;2023-12-20T06:58:33;12.95;;;11.60;;
84614;SDS011;74845;51.204;22.580;2023-12-20T07:01:00;13.85;;;12.52;;
84614;SDS011;74845;51.204;22.580;2023-12-20T07:03:27;13.32;;;11.90;;
84614;SDS011;74845;51.204;22.580;2023-12-20T07:05:54;12.95;;;11.63;;
84614;SDS011;74845;51.204;22.580;2023-12-20T07:08:21;13.25;;;11.70;;
84614;SDS011;74845;51.204;22.580;2023-12-20T07:10:48;14.30;;;12.90;;
84614;SDS011;74845;51.204;22.580;2023-12-20T07:13:14;13.65;;;11.18;;
84614;SDS011;74845;51.204;22.580;2023-12-20T07:15:41;13.43;;;12.15;;
84614;SDS011;74845;51.204;22.580;2023-12-20T07:18:10;14.00;;;12.63;;
84614;SDS011;74845;51.204;22.580;2023-12-20T07:20:37;15.63;;;14.10;;
84614;SDS011;74845;51.204;22.580;2023-12-20T07:23:04;14.93;;;13.52;;
84614;SDS011;74845;51.204;22.580;2023-12-20T07:25:31;11.70;;;10.57;;
84614;SDS011;74845;51.204;22.580;2023-12-20T07:27:59;15.90;;;14.30;;
84614;SDS011;74845;51.204;22.580;2023-12-20T07:30:26;14.75;;;13.30;;
84614;SDS011;74845;51.204;22.580;2023-12-20T07:32:53;14.07;;;12.60;;
84614;SDS011;74845;51.204;22.580;2023-12-20T07:35:20;14.65;;;13.05;;
84614;SDS011;74845;51.204;22.580;2023-12-20T07:37:47;14.27;;;12.27;;
84614;SDS011;74845;51.204;22.580;2023-12-20T07:40:14;15.27;;;13.48;;
84614;SDS011;74845;51.204;22.580;2023-12-20T07:42:43;13.63;;;12.18;;
84614;SDS011;74845;51.204;22.580;2023-12-20T07:45:10;14.30;;;12.80;;
84614;SDS011;74845;51.204;22.580;2023-12-20T07:47:38;13.30;;;11.93;;
84614;SDS011;74845;51.204;22.580;2023-12-20T07:50:05;15.55;;;14.05;;
84614;SDS011;74845;51.204;22.580;2023-12-20T07:52:32;14.88;;;13.10;;
84614;SDS011;74845;51.204;22.580;2023-12-20T07:54:59;13.13;;;11.73;;
84614;SDS011;74845;51.204;22.580;2023-12-20T07:57:28;15.52;;;12.80;;
84614;SDS011;74845;51.204;22.580;2023-12-20T07:59:56;15.57;;;12.95;;
84614;SDS011;74845;51.204;22.580;2023-12-20T08:02:23;14.20;;;12.95;;
84614;SDS011;74845;51.204;22.580;2023-12-20T08:04:50;14.85;;;12.77;;
84614;SDS011;74845;51.204;22.580;2023-12-20T08:07:16;13.77;;;12.48;;
84614;SDS011;74845;51.204;22.580;2023-12-20T08:09:43;14.07;;;12.30;;
84614;SDS011;74845;51.204;22.580;2023-12-20T08:12:10;16.75;;;13.55;;
84614;SDS011;74845;51.204;22.580;2023-12-20T08:14:38;14.55;;;12.32;;
84614;SDS011;74845;51.204;22.580;2023-12-20T08:17:04;13.45;;;12.13;;
84614;SDS011;74845;51.204;22.580;2023-12-20T08:19:31;15.98;;;13.90;;
84614;SDS011;74845;51.204;22.580;2023-12-20T08:21:58;15.90;;;14.27;;
84614;SDS011;74845;51.204;22.580;2023-12-20T08:24:25;13.23;;;11.77;;
84614;SDS011;74845;51.204;22.580;2023-12-20T08:26:51;15.38;;;13.95;;
84614;SDS011;74845;51.204;22.580;2023-12-20T08:29:19;13.13;;;11.93;;
84614;SDS011;74845;51.204;22.580;2023-12-20T08:31:45;12.93;;;11.57;;
84614;SDS011;74845;51.204;22.580;2023-12-20T08:34:13;12.23;;;10.88;;
84614;SDS011;74845;51.204;22.580;2023-12-20T08:36:41;13.00;;;11.55;;
84614;SDS011;74845;51.204;22.580;2023-12-20T08:39:08;13.07;;;11.73;;
84614;SDS011;74845;51.204;22.580;2023-12-20T08:41:35;13.98;;;11.52;;
84614;SDS011;74845;51.204;22.580;2023-12-20T08:44:03;12.80;;;10.85;;
84614;SDS011;74845;51.204;22.580;2023-12-20T08:46:30;12.88;;;11.13;;
84614;SDS011;74845;51.204;22.580;2023-12-20T08:48:57;13.88;;;11.48;;
84614;SDS011;74845;51.204;22.580;2023-12-20T08:51:24;12.25;;;11.00;;
84614;SDS011;74845;51.204;22.580;2023-12-20T08:53:52;13.45;;;12.10;;
84614;SDS011;74845;51.204;22.580;2023-12-20T08:56:19;13.38;;;11.95;;
84614;SDS011;74845;51.204;22.580;2023-12-20T08:58:46;15.52;;;12.10;;
84614;SDS011;74845;51.204;22.580;2023-12-20T09:01:13;13.10;;;11.25;;
84614;SDS011;74845;51.204;22.580;2023-12-20T09:03:41;12.35;;;10.43;;
84614;SDS011;74845;51.204;22.580;2023-12-20T09:06:08;12.95;;;11.75;;
84614;SDS011;74845;51.204;22.580;2023-12-20T09:08:34;12.10;;;10.63;;
84614;SDS011;74845;51.204;22.580;2023-12-20T09:11:01;11.90;;;10.75;;
84614;SDS011;74845;51.204;22.580;2023-12-20T09:13:29;13.07;;;11.80;;
84614;SDS011;74845;51.204;22.580;2023-12-20T09:15:56;12.48;;;11.18;;
84614;SDS011;74845;51.204;22.580;2023-12-20T09:18:23;11.50;;;10.30;;
84614;SDS011;74845;51.204;22.580;2023-12-20T09:20:50;12.68;;;11.40;;
84614;SDS011;74845;51.204;22.580;2023-12-20T09:23:17;14.75;;;13.10;;
84614;SDS011;74845;51.204;22.580;2023-12-20T09:25:44;11.52;;;10.35;;
84614;SDS011;74845;51.204;22.580;2023-12-20T09:28:12;12.98;;;11.70;;
84614;SDS011;74845;51.204;22.580;2023-12-20T09:30:39;14.85;;;12.55;;
84614;SDS011;74845;51.204;22.580;2023-12-20T09:33:07;12.40;;;11.10;;
84614;SDS011;74845;51.204;22.580;2023-12-20T09:35:34;13.32;;;11.77;;
84614;SDS011;74845;51.204;22.580;2023-12-20T09:38:01;12.38;;;11.05;;
84614;SDS011;74845;51.204;22.580;2023-12-20T09:40:28;13.13;;;11.10;;
84614;SDS011;74845;51.204;22.580;2023-12-20T09:42:58;13.25;;;11.88;;
84614;SDS011;74845;51.204;22.580;2023-12-20T09:45:30;13.30;;;11.30;;
84614;SDS011;74845;51.204;22.580;2023-12-20T09:47:58;12.27;;;11.07;;
84614;SDS011;74845;51.204;22.580;2023-12-20T09:50:25;16.75;;;10.88;;
84614;SDS011;74845;51.204;22.580;2023-12-20T09:52:53;13.32;;;11.85;;
84614;SDS011;74845;51.204;22.580;2023-12-20T09:55:22;12.02;;;10.88;;
84614;SDS011;74845;51.204;22.580;2023-12-20T09:57:51;13.77;;;11.25;;
84614;SDS011;74845;51.204;22.580;2023-12-20T10:00:18;12.65;;;11.38;;
84614;SDS011;74845;51.204;22.580;2023-12-20T10:02:58;12.50;;;11.32;;
84614;SDS011;74845;51.204;22.580;2023-12-20T10:05:27;12.52;;;11.35;;
84614;SDS011;74845;51.204;22.580;2023-12-20T10:07:56;11.77;;;10.60;;
84614;SDS011;74845;51.204;22.580;2023-12-20T10:10:23;14.45;;;12.85;;
84614;SDS011;74845;51.204;22.580;2023-12-20T10:13:07;13.02;;;11.57;;
84614;SDS011;74845;51.204;22.580;2023-12-20T10:15:37;12.82;;;11.52;;
84614;SDS011;74845;51.204;22.580;2023-12-20T10:18:05;11.55;;;10.45;;
84614;SDS011;74845;51.204;22.580;2023-12-20T10:20:32;10.05;;;9.15;;
84614;SDS011;74845;51.204;22.580;2023-12-20T10:23:00;11.98;;;10.82;;
84614;SDS011;74845;51.204;22.580;2023-12-20T10:25:28;11.43;;;10.32;;
84614;SDS011;74845;51.204;22.580;2023-12-20T10:28:14;12.70;;;10.95;;
84614;SDS011;74845;51.204;22.580;2023-12-20T10:30:46;10.52;;;9.57;;
84614;SDS011;74845;51.204;22.580;2023-12-20T10:33:13;11.13;;;9.95;;
84614;SDS011;74845;51.204;22.580;2023-12-20T10:35:40;11.82;;;10.65;;
84614;SDS011;74845;51.204;22.580;2023-12-20T10:38:12;10.73;;;9.70;;
84614;SDS011;74845;51.204;22.580;2023-12-20T10:40:41;10.77;;;9.65;;
84614;SDS011;74845;51.204;22.580;2023-12-20T10:43:09;11.10;;;9.30;;
84614;SDS011;74845;51.204;22.580;2023-12-20T10:45:37;12.65;;;11.35;;
84614;SDS011;74845;51.204;22.580;2023-12-20T10:48:04;11.18;;;10.13;;
84614;SDS011;74845;51.204;22.580;2023-12-20T10:50:31;9.73;;;8.77;;
84614;SDS011;74845;51.204;22.580;2023-12-20T10:52:58;11.27;;;9.82;;
84614;SDS011;74845;51.204;22.580;2023-12-20T10:55:27;11.80;;;10.60;;
84614;SDS011;74845;51.204;22.580;2023-12-20T10:58:00;10.70;;;9.45;;
84614;SDS011;74845;51.204;22.580;2023-12-20T11:00:28;10.50;;;9.25;;
84614;SDS011;74845;51.204;22.580;2023-12-20T11:02:59;9.07;;;8.27;;
84614;SDS011;74845;51.204;22.580;2023-12-20T11:05:40;9.85;;;8.95;;
84614;SDS011;74845;51.204;22.580;2023-12-20T11:08:26;9.48;;;8.57;;
84614;SDS011;74845;51.204;22.580;2023-12-20T11:13:53;7.07;;;6.45;;
84614;SDS011;74845;51.204;22.580;2023-12-20T11:16:23;9.63;;;8.75;;
84614;SDS011;74845;51.204;22.580;2023-12-20T11:18:55;9.40;;;8.50;;
84614;SDS011;74845;51.204;22.580;2023-12-20T11:21:22;8.38;;;7.53;;
84614;SDS011;74845;51.204;22.580;2023-12-20T11:23:48;9.32;;;8.43;;
84614;SDS011;74845;51.204;22.580;2023-12-20T11:26:15;9.95;;;8.80;;
84614;SDS011;74845;51.204;22.580;2023-12-20T11:28:43;9.35;;;8.55;;
84614;SDS011;74845;51.204;22.580;2023-12-20T11:31:12;9.70;;;8.27;;
84614;SDS011;74845;51.204;22.580;2023-12-20T11:33:42;9.82;;;7.95;;
84614;SDS011;74845;51.204;22.580;2023-12-20T11:36:14;8.90;;;8.07;;
84614;SDS011;74845;51.204;22.580;2023-12-20T11:38:57;9.60;;;8.70;;
84614;SDS011;74845;51.204;22.580;2023-12-20T11:41:25;9.57;;;8.48;;
84614;SDS011;74845;51.204;22.580;2023-12-20T11:43:53;9.77;;;8.75;;
84614;SDS011;74845;51.204;22.580;2023-12-20T11:46:20;10.13;;;9.27;;
84614;SDS011;74845;51.204;22.580;2023-12-20T11:48:47;15.00;;;13.52;;
84614;SDS011;74845;51.204;22.580;2023-12-20T11:51:15;12.70;;;11.43;;
84614;SDS011;74845;51.204;22.580;2023-12-20T11:53:41;9.70;;;8.82;;
84614;SDS011;74845;51.204;22.580;2023-12-20T11:56:11;9.07;;;8.20;;
84614;SDS011;74845;51.204;22.580;2023-12-20T11:58:39;10.38;;;9.38;;
84614;SDS011;74845;51.204;22.580;2023-12-20T12:01:06;12.55;;;10.60;;
84614;SDS011;74845;51.204;22.580;2023-12-20T12:03:35;11.57;;;10.43;;
84614;SDS011;74845;51.204;22.580;2023-12-20T12:06:02;11.13;;;10.07;;
84614;SDS011;74845;51.204;22.580;2023-12-20T12:08:31;9.82;;;9.02;;
84614;SDS011;74845;51.204;22.580;2023-12-20T12:10:58;10.23;;;8.35;;
84614;SDS011;74845;51.204;22.580;2023-12-20T12:13:25;9.45;;;8.48;;
84614;SDS011;74845;51.204;22.580;2023-12-20T12:15:55;11.75;;;9.43;;
84614;SDS011;74845;51.204;22.580;2023-12-20T12:18:22;9.23;;;8.32;;
84614;SDS011;74845;51.204;22.580;2023-12-20T12:20:49;7.63;;;6.97;;
84614;SDS011;74845;51.204;22.580;2023-12-20T12:23:22;6.28;;;5.68;;
84614;SDS011;74845;51.204;22.580;2023-12-20T12:25:52;4.13;;;3.80;;
84614;SDS011;74845;51.204;22.580;2023-12-20T12:28:21;3.22;;;3.03;;
84614;SDS011;74845;51.204;22.580;2023-12-20T12:31:00;3.22;;;2.58;;
84614;SDS011;74845;51.204;22.580;2023-12-20T12:33:27;2.03;;;1.92;;
84614;SDS011;74845;51.204;22.580;2023-12-20T12:35:54;3.15;;;2.40;;
84614;SDS011;74845;51.204;22.580;2023-12-20T12:38:21;3.67;;;3.35;;
84614;SDS011;74845;51.204;22.580;2023-12-20T12:40:49;9.13;;;8.23;;
84614;SDS011;74845;51.204;22.580;2023-12-20T12:43:16;6.68;;;5.43;;
84614;SDS011;74845;51.204;22.580;2023-12-20T12:45:43;5.45;;;4.95;;
84614;SDS011;74845;51.204;22.580;2023-12-20T12:48:10;6.13;;;5.57;;
84614;SDS011;74845;51.204;22.580;2023-12-20T12:50:37;4.20;;;3.80;;
84614;SDS011;74845;51.204;22.580;2023-12-20T12:53:04;4.72;;;4.32;;
84614;SDS011;74845;51.204;22.580;2023-12-20T12:55:30;3.70;;;3.38;;
84614;SDS011;74845;51.204;22.580;2023-12-20T12:57:57;3.22;;;3.03;;
84614;SDS011;74845;51.204;22.580;2023-12-20T13:00:24;5.40;;;3.75;;
84614;SDS011;74845;51.204;22.580;2023-12-20T13:02:52;4.00;;;3.70;;
84614;SDS011;74845;51.204;22.580;2023-12-20T13:05:20;3.90;;;3.50;;
84614;SDS011;74845;51.204;22.580;2023-12-20T13:07:47;3.13;;;2.92;;
84614;SDS011;74845;51.204;22.580;2023-12-20T13:10:15;3.63;;;3.33;;
84614;SDS011;74845;51.204;22.580;2023-12-20T13:12:43;4.22;;;3.03;;
84614;SDS011;74845;51.204;22.580;2023-12-20T13:15:10;3.10;;;2.80;;
84614;SDS011;74845;51.204;22.580;2023-12-20T13:17:37;2.85;;;2.60;;
84614;SDS011;74845;51.204;22.580;2023-12-20T13:20:04;3.58;;;2.53;;
84614;SDS011;74845;51.204;22.580;2023-12-20T13:22:32;4.97;;;4.47;;
84614;SDS011;74845;51.204;22.580;2023-12-20T13:24:59;4.78;;;3.30;;
84614;SDS011;74845;51.204;22.580;2023-12-20T13:27:27;2.80;;;2.58;;
84614;SDS011;74845;51.204;22.580;2023-12-20T13:29:54;2.40;;;2.28;;
84614;SDS011;74845;51.204;22.580;2023-12-20T13:32:21;2.00;;;1.90;;
84614;SDS011;74845;51.204;22.580;2023-12-20T13:34:48;2.42;;;2.03;;
84614;SDS011;74845;51.204;22.580;2023-12-20T13:37:15;2.15;;;1.98;;
84614;SDS011;74845;51.204;22.580;2023-12-20T13:39:42;3.10;;;2.35;;
84614;SDS011;74845;51.204;22.580;2023-12-20T13:42:08;2.53;;;2.33;;
84614;SDS011;74845;51.204;22.580;2023-12-20T13:44:35;3.22;;;2.92;;
84614;SDS011;74845;51.204;22.580;2023-12-20T13:47:02;12.50;;;8.77;;
84614;SDS011;74845;51.204;22.580;2023-12-20T13:49:29;27.98;;;20.25;;
84614;SDS011;74845;51.204;22.580;2023-12-20T13:51:56;30.45;;;19.80;;
84614;SDS011;74845;51.204;22.580;2023-12-20T13:54:24;19.48;;;15.10;;
84614;SDS011;74845;51.204;22.580;2023-12-20T13:56:51;10.27;;;9.15;;
84614;SDS011;74845;51.204;22.580;2023-12-20T13:59:36;8.07;;;5.13;;
84614;SDS011;74845;51.204;22.580;2023-12-20T14:02:03;8.38;;;6.68;;
84614;SDS011;74845;51.204;22.580;2023-12-20T14:04:30;8.90;;;5.05;;
84614;SDS011;74845;51.204;22.580;2023-12-20T14:07:08;10.55;;;6.78;;
84614;SDS011;74845;51.204;22.580;2023-12-20T14:12:05;7.22;;;4.97;;
84614;SDS011;74845;51.204;22.580;2023-12-20T14:14:32;3.83;;;3.38;;
84614;SDS011;74845;51.204;22.580;2023-12-20T14:16:59;5.63;;;4.57;;
84614;SDS011;74845;51.204;22.580;2023-12-20T14:19:25;6.57;;;4.72;;
84614;SDS011;74845;51.204;22.580;2023-12-20T14:21:53;3.70;;;2.70;;
84614;SDS011;74845;51.204;22.580;2023-12-20T14:24:19;5.28;;;3.97;;
84614;SDS011;74845;51.204;22.580;2023-12-20T14:26:46;6.10;;;3.80;;